sensor_id;sensor_type;location;lat;lon;timestamp;temperature;humidity
41664;DHT22;27353;50.906;7.248;2022-11-20T00:00:53;3.30;99.90
41664;DHT22;27353;50.906;7.248;2022-11-20T00:03:19;3.20;99.90
41664;DHT22;27353;50.906;7.248;2022-11-20T00:05:44;3.10;99.90
41664;DHT22;27353;50.906;7.248;2022-11-20T00:08:10;3.10;99.90
41664;DHT22;27353;50.906;7.248;2022-11-20T00:10:37;3.10;99.90
41664;DHT22;27353;50.906;7.248;2022-11-20T00:13:03;3.00;99.90
41664;DHT22;27353;50.906;7.248;2022-11-20T00:15:29;3.10;99.90
41664;DHT22;27353;50.906;7.248;2022-11-20T00:17:54;3.10;99.90
41664;DHT22;27353;50.906;7.248;2022-11-20T00:20:20;3.10;99.90
41664;DHT22;27353;50.906;7.248;2022-11-20T00:22:46;3.20;99.90
41664;DHT22;27353;50.906;7.248;2022-11-20T00:25:15;3.10;99.90
41664;DHT22;27353;50.906;7.248;2022-11-20T00:27:40;3.10;99.90
41664;DHT22;27353;50.906;7.248;2022-11-20T00:30:07;3.00;99.90
41664;DHT22;27353;50.906;7.248;2022-11-20T00:32:32;3.10;99.90
41664;DHT22;27353;50.906;7.248;2022-11-20T00:34:58;3.10;99.90
41664;DHT22;27353;50.906;7.248;2022-11-20T00:37:24;2.90;99.90
41664;DHT22;27353;50.906;7.248;2022-11-20T00:39:50;3.00;99.90
41664;DHT22;27353;50.906;7.248;2022-11-20T00:42:15;3.00;99.90
41664;DHT22;27353;50.906;7.248;2022-11-20T00:44:41;3.00;99.90
41664;DHT22;27353;50.906;7.248;2022-11-20T00:47:07;3.10;99.90
41664;DHT22;27353;50.906;7.248;2022-11-20T00:49:32;3.20;99.90
41664;DHT22;27353;50.906;7.248;2022-11-20T00:51:58;3.10;99.90
41664;DHT22;27353;50.906;7.248;2022-11-20T00:54:24;3.00;99.90
41664;DHT22;27353;50.906;7.248;2022-11-20T00:56:49;3.00;99.90
41664;DHT22;27353;50.906;7.248;2022-11-20T00:59:15;3.20;99.90
41664;DHT22;27353;50.906;7.248;2022-11-20T01:01:40;3.10;99.90
41664;DHT22;27353;50.906;7.248;2022-11-20T01:04:06;3.10;99.90
41664;DHT22;27353;50.906;7.248;2022-11-20T01:06:34;3.20;99.90
41664;DHT22;27353;50.906;7.248;2022-11-20T01:09:04;3.10;99.90
41664;DHT22;27353;50.906;7.248;2022-11-20T01:11:33;3.20;99.90
41664;DHT22;27353;50.906;7.248;2022-11-20T01:13:59;3.20;99.90
41664;DHT22;27353;50.906;7.248;2022-11-20T01:16:34;3.10;99.90
41664;DHT22;27353;50.906;7.248;2022-11-20T01:19:01;3.10;99.90
41664;DHT22;27353;50.906;7.248;2022-11-20T01:21:30;3.10;99.90
41664;DHT22;27353;50.906;7.248;2022-11-20T01:23:56;3.20;99.90
41664;DHT22;27353;50.906;7.248;2022-11-20T01:26:25;3.10;99.90
41664;DHT22;27353;50.906;7.248;2022-11-20T01:28:51;3.00;99.90
41664;DHT22;27353;50.906;7.248;2022-11-20T01:31:22;3.00;99.90
41664;DHT22;27353;50.906;7.248;2022-11-20T01:33:51;3.00;99.90
41664;DHT22;27353;50.906;7.248;2022-11-20T01:36:18;3.10;99.90
41664;DHT22;27353;50.906;7.248;2022-11-20T01:38:43;3.10;99.90
41664;DHT22;27353;50.906;7.248;2022-11-20T01:41:16;3.10;99.90
41664;DHT22;27353;50.906;7.248;2022-11-20T01:44:00;3.10;99.90
41664;DHT22;27353;50.906;7.248;2022-11-20T01:46:27;3.00;99.90
41664;DHT22;27353;50.906;7.248;2022-11-20T01:49:11;3.10;99.90
41664;DHT22;27353;50.906;7.248;2022-11-20T01:51:56;3.20;99.90
41664;DHT22;27353;50.906;7.248;2022-11-20T01:54:47;3.20;99.90
41664;DHT22;27353;50.906;7.248;2022-11-20T01:57:15;3.20;99.90
41664;DHT22;27353;50.906;7.248;2022-11-20T02:02:26;3.20;99.90
41664;DHT22;27353;50.906;7.248;2022-11-20T02:04:54;3.30;99.90
41664;DHT22;27353;50.906;7.248;2022-11-20T02:07:22;3.30;99.90
41664;DHT22;27353;50.906;7.248;2022-11-20T02:09:48;3.30;99.90
41664;DHT22;27353;50.906;7.248;2022-11-20T02:12:14;3.20;99.90
41664;DHT22;27353;50.906;7.248;2022-11-20T02:14:59;3.30;99.90
41664;DHT22;27353;50.906;7.248;2022-11-20T02:17:25;3.20;99.90
41664;DHT22;27353;50.906;7.248;2022-11-20T02:19:51;3.20;99.90
41664;DHT22;27353;50.906;7.248;2022-11-20T02:22:32;3.20;99.90
41664;DHT22;27353;50.906;7.248;2022-11-20T02:25:00;3.20;99.90
41664;DHT22;27353;50.906;7.248;2022-11-20T02:27:27;3.20;99.90
41664;DHT22;27353;50.906;7.248;2022-11-20T02:30:01;3.30;99.90
41664;DHT22;27353;50.906;7.248;2022-11-20T02:32:32;3.30;99.90
41664;DHT22;27353;50.906;7.248;2022-11-20T02:34:58;3.20;99.90
41664;DHT22;27353;50.906;7.248;2022-11-20T02:37:30;3.10;99.90
41664;DHT22;27353;50.906;7.248;2022-11-20T02:39:56;3.10;99.90
41664;DHT22;27353;50.906;7.248;2022-11-20T02:42:22;3.10;99.90
41664;DHT22;27353;50.906;7.248;2022-11-20T02:44:47;3.00;99.90
41664;DHT22;27353;50.906;7.248;2022-11-20T02:47:13;2.90;99.90
41664;DHT22;27353;50.906;7.248;2022-11-20T02:49:39;2.90;99.90
41664;DHT22;27353;50.906;7.248;2022-11-20T02:52:04;2.90;99.90
41664;DHT22;27353;50.906;7.248;2022-11-20T02:54:30;2.90;99.90
41664;DHT22;27353;50.906;7.248;2022-11-20T02:56:56;2.90;99.90
41664;DHT22;27353;50.906;7.248;2022-11-20T02:59:22;2.90;99.90
41664;DHT22;27353;50.906;7.248;2022-11-20T03:01:48;3.00;99.90
41664;DHT22;27353;50.906;7.248;2022-11-20T03:04:13;3.00;99.90
41664;DHT22;27353;50.906;7.248;2022-11-20T03:06:39;3.00;99.90
41664;DHT22;27353;50.906;7.248;2022-11-20T03:09:04;3.00;99.90
41664;DHT22;27353;50.906;7.248;2022-11-20T03:11:30;3.00;99.90
41664;DHT22;27353;50.906;7.248;2022-11-20T03:13:56;3.10;99.90
41664;DHT22;27353;50.906;7.248;2022-11-20T03:16:23;3.20;99.90
41664;DHT22;27353;50.906;7.248;2022-11-20T03:18:50;3.10;99.90
41664;DHT22;27353;50.906;7.248;2022-11-20T03:21:17;3.10;99.90
41664;DHT22;27353;50.906;7.248;2022-11-20T03:23:43;3.20;99.90
41664;DHT22;27353;50.906;7.248;2022-11-20T03:28:38;3.10;99.90
41664;DHT22;27353;50.906;7.248;2022-11-20T03:31:09;3.00;99.90
41664;DHT22;27353;50.906;7.248;2022-11-20T03:33:35;3.00;99.90
41664;DHT22;27353;50.906;7.248;2022-11-20T03:36:07;3.00;99.90
41664;DHT22;27353;50.906;7.248;2022-11-20T03:38:33;3.10;99.90
41664;DHT22;27353;50.906;7.248;2022-11-20T03:41:01;3.00;99.90
41664;DHT22;27353;50.906;7.248;2022-11-20T03:43:27;3.00;99.90
41664;DHT22;27353;50.906;7.248;2022-11-20T03:45:53;2.90;99.90
41664;DHT22;27353;50.906;7.248;2022-11-20T03:48:18;3.00;99.90
41664;DHT22;27353;50.906;7.248;2022-11-20T03:50:44;3.00;99.90
41664;DHT22;27353;50.906;7.248;2022-11-20T03:53:16;3.00;99.90
41664;DHT22;27353;50.906;7.248;2022-11-20T03:55:41;3.00;99.90
41664;DHT22;27353;50.906;7.248;2022-11-20T03:58:08;2.90;99.90
41664;DHT22;27353;50.906;7.248;2022-11-20T04:00:33;2.90;99.90
41664;DHT22;27353;50.906;7.248;2022-11-20T04:03:01;2.90;99.90
41664;DHT22;27353;50.906;7.248;2022-11-20T04:05:26;2.90;99.90
41664;DHT22;27353;50.906;7.248;2022-11-20T04:07:52;3.00;99.90
41664;DHT22;27353;50.906;7.248;2022-11-20T04:10:18;2.90;99.90
41664;DHT22;27353;50.906;7.248;2022-11-20T04:12:43;2.90;99.90
41664;DHT22;27353;50.906;7.248;2022-11-20T04:15:09;3.00;99.90
41664;DHT22;27353;50.906;7.248;2022-11-20T04:17:35;3.00;99.90
41664;DHT22;27353;50.906;7.248;2022-11-20T04:20:01;3.00;99.90
41664;DHT22;27353;50.906;7.248;2022-11-20T04:22:27;3.00;99.90
41664;DHT22;27353;50.906;7.248;2022-11-20T04:24:53;3.10;99.90
41664;DHT22;27353;50.906;7.248;2022-11-20T04:27:18;3.00;99.90
41664;DHT22;27353;50.906;7.248;2022-11-20T04:29:44;3.00;99.90
41664;DHT22;27353;50.906;7.248;2022-11-20T04:32:10;3.00;99.90
41664;DHT22;27353;50.906;7.248;2022-11-20T04:34:35;3.00;99.90
41664;DHT22;27353;50.906;7.248;2022-11-20T04:37:01;2.90;99.90
41664;DHT22;27353;50.906;7.248;2022-11-20T04:39:26;3.00;99.90
41664;DHT22;27353;50.906;7.248;2022-11-20T04:41:52;3.10;99.90
41664;DHT22;27353;50.906;7.248;2022-11-20T04:44:38;3.20;99.90
41664;DHT22;27353;50.906;7.248;2022-11-20T04:47:03;3.10;99.90
41664;DHT22;27353;50.906;7.248;2022-11-20T04:49:29;3.10;99.90
41664;DHT22;27353;50.906;7.248;2022-11-20T04:51:57;3.10;99.90
41664;DHT22;27353;50.906;7.248;2022-11-20T04:54:22;3.10;99.90
41664;DHT22;27353;50.906;7.248;2022-11-20T04:56:49;3.10;99.90
41664;DHT22;27353;50.906;7.248;2022-11-20T04:59:15;3.10;99.90
41664;DHT22;27353;50.906;7.248;2022-11-20T05:01:41;3.10;99.90
41664;DHT22;27353;50.906;7.248;2022-11-20T05:04:06;3.10;99.90
41664;DHT22;27353;50.906;7.248;2022-11-20T05:06:32;3.20;99.90
41664;DHT22;27353;50.906;7.248;2022-11-20T05:08:58;3.20;99.90
41664;DHT22;27353;50.906;7.248;2022-11-20T05:11:24;3.20;99.90
41664;DHT22;27353;50.906;7.248;2022-11-20T05:13:51;3.10;99.90
41664;DHT22;27353;50.906;7.248;2022-11-20T05:16:23;3.20;99.90
41664;DHT22;27353;50.906;7.248;2022-11-20T05:18:51;3.20;99.90
41664;DHT22;27353;50.906;7.248;2022-11-20T05:21:17;3.20;99.90
41664;DHT22;27353;50.906;7.248;2022-11-20T05:23:44;3.20;99.90
41664;DHT22;27353;50.906;7.248;2022-11-20T05:26:15;3.20;99.90
41664;DHT22;27353;50.906;7.248;2022-11-20T05:28:41;3.20;99.90
41664;DHT22;27353;50.906;7.248;2022-11-20T05:31:12;3.20;99.90
41664;DHT22;27353;50.906;7.248;2022-11-20T05:33:41;3.30;99.90
41664;DHT22;27353;50.906;7.248;2022-11-20T05:36:08;3.30;99.90
41664;DHT22;27353;50.906;7.248;2022-11-20T05:38:34;3.30;99.90
41664;DHT22;27353;50.906;7.248;2022-11-20T05:41:12;3.30;99.90
41664;DHT22;27353;50.906;7.248;2022-11-20T05:43:39;3.30;99.90
41664;DHT22;27353;50.906;7.248;2022-11-20T05:46:07;3.30;99.90
41664;DHT22;27353;50.906;7.248;2022-11-20T05:48:34;3.30;99.90
41664;DHT22;27353;50.906;7.248;2022-11-20T05:51:01;3.30;99.90
41664;DHT22;27353;50.906;7.248;2022-11-20T05:53:27;3.30;99.90
41664;DHT22;27353;50.906;7.248;2022-11-20T05:56:17;3.30;99.90
41664;DHT22;27353;50.906;7.248;2022-11-20T05:58:43;3.40;99.90
41664;DHT22;27353;50.906;7.248;2022-11-20T06:01:15;3.40;99.90
41664;DHT22;27353;50.906;7.248;2022-11-20T06:03:41;3.30;99.90
41664;DHT22;27353;50.906;7.248;2022-11-20T06:06:09;3.40;99.90
41664;DHT22;27353;50.906;7.248;2022-11-20T06:08:35;3.40;99.90
41664;DHT22;27353;50.906;7.248;2022-11-20T06:11:08;3.40;99.90
41664;DHT22;27353;50.906;7.248;2022-11-20T06:13:34;3.50;99.90
41664;DHT22;27353;50.906;7.248;2022-11-20T06:16:00;3.50;99.90
41664;DHT22;27353;50.906;7.248;2022-11-20T06:18:30;3.50;99.90
41664;DHT22;27353;50.906;7.248;2022-11-20T06:21:14;3.40;99.90
41664;DHT22;27353;50.906;7.248;2022-11-20T06:23:40;3.50;99.90
41664;DHT22;27353;50.906;7.248;2022-11-20T06:26:08;3.50;99.90
41664;DHT22;27353;50.906;7.248;2022-11-20T06:28:34;3.50;99.90
41664;DHT22;27353;50.906;7.248;2022-11-20T06:31:03;3.50;99.90
41664;DHT22;27353;50.906;7.248;2022-11-20T06:33:29;3.50;99.90
41664;DHT22;27353;50.906;7.248;2022-11-20T06:35:59;3.50;99.90
41664;DHT22;27353;50.906;7.248;2022-11-20T06:38:26;3.50;99.90
41664;DHT22;27353;50.906;7.248;2022-11-20T06:40:52;3.50;99.90
41664;DHT22;27353;50.906;7.248;2022-11-20T06:43:18;3.50;99.90
41664;DHT22;27353;50.906;7.248;2022-11-20T06:45:43;3.50;99.90
41664;DHT22;27353;50.906;7.248;2022-11-20T06:48:09;3.50;99.90
41664;DHT22;27353;50.906;7.248;2022-11-20T06:50:38;3.40;99.90
41664;DHT22;27353;50.906;7.248;2022-11-20T06:53:04;3.40;99.90
41664;DHT22;27353;50.906;7.248;2022-11-20T06:55:31;3.40;99.90
41664;DHT22;27353;50.906;7.248;2022-11-20T06:57:57;3.40;99.90
41664;DHT22;27353;50.906;7.248;2022-11-20T07:00:22;3.50;99.90
41664;DHT22;27353;50.906;7.248;2022-11-20T07:02:48;3.40;99.90
41664;DHT22;27353;50.906;7.248;2022-11-20T07:05:14;3.50;99.90
41664;DHT22;27353;50.906;7.248;2022-11-20T07:07:39;3.50;99.90
41664;DHT22;27353;50.906;7.248;2022-11-20T07:10:05;3.50;99.90
41664;DHT22;27353;50.906;7.248;2022-11-20T07:12:31;3.50;99.90
41664;DHT22;27353;50.906;7.248;2022-11-20T07:14:57;3.40;99.90
41664;DHT22;27353;50.906;7.248;2022-11-20T07:17:22;3.40;99.90
41664;DHT22;27353;50.906;7.248;2022-11-20T07:19:48;3.40;99.90
41664;DHT22;27353;50.906;7.248;2022-11-20T07:22:13;3.40;99.90
41664;DHT22;27353;50.906;7.248;2022-11-20T07:24:39;3.30;99.90
41664;DHT22;27353;50.906;7.248;2022-11-20T07:27:05;3.30;99.90
41664;DHT22;27353;50.906;7.248;2022-11-20T07:29:33;3.30;99.90
41664;DHT22;27353;50.906;7.248;2022-11-20T07:31:59;3.50;99.90
41664;DHT22;27353;50.906;7.248;2022-11-20T07:34:24;3.60;99.90
41664;DHT22;27353;50.906;7.248;2022-11-20T07:36:50;3.60;99.90
41664;DHT22;27353;50.906;7.248;2022-11-20T07:39:16;3.60;99.90
41664;DHT22;27353;50.906;7.248;2022-11-20T07:41:41;3.70;99.90
41664;DHT22;27353;50.906;7.248;2022-11-20T07:44:07;3.70;99.90
41664;DHT22;27353;50.906;7.248;2022-11-20T07:46:32;3.70;99.90
41664;DHT22;27353;50.906;7.248;2022-11-20T07:48:58;3.80;99.90
41664;DHT22;27353;50.906;7.248;2022-11-20T07:51:24;3.80;99.90
41664;DHT22;27353;50.906;7.248;2022-11-20T07:53:52;3.80;99.90
41664;DHT22;27353;50.906;7.248;2022-11-20T07:56:18;3.90;99.90
41664;DHT22;27353;50.906;7.248;2022-11-20T07:58:44;3.90;99.90
41664;DHT22;27353;50.906;7.248;2022-11-20T08:01:09;3.90;99.90
41664;DHT22;27353;50.906;7.248;2022-11-20T08:03:35;3.80;99.90
41664;DHT22;27353;50.906;7.248;2022-11-20T08:06:05;3.80;99.90
41664;DHT22;27353;50.906;7.248;2022-11-20T08:08:31;3.70;99.90
41664;DHT22;27353;50.906;7.248;2022-11-20T08:10:57;3.80;99.90
41664;DHT22;27353;50.906;7.248;2022-11-20T08:13:43;3.80;99.90
41664;DHT22;27353;50.906;7.248;2022-11-20T08:16:27;3.90;99.90
41664;DHT22;27353;50.906;7.248;2022-11-20T08:18:53;4.00;99.90
41664;DHT22;27353;50.906;7.248;2022-11-20T08:21:19;4.00;99.90
41664;DHT22;27353;50.906;7.248;2022-11-20T08:23:45;4.00;99.90
41664;DHT22;27353;50.906;7.248;2022-11-20T08:26:10;4.10;99.90
41664;DHT22;27353;50.906;7.248;2022-11-20T08:28:36;4.10;99.90
41664;DHT22;27353;50.906;7.248;2022-11-20T08:31:03;4.10;99.90
41664;DHT22;27353;50.906;7.248;2022-11-20T08:33:29;4.10;99.90
41664;DHT22;27353;50.906;7.248;2022-11-20T08:36:00;4.10;99.90
41664;DHT22;27353;50.906;7.248;2022-11-20T08:38:26;4.10;99.90
41664;DHT22;27353;50.906;7.248;2022-11-20T08:40:51;4.00;99.90
41664;DHT22;27353;50.906;7.248;2022-11-20T08:43:36;4.00;99.90
41664;DHT22;27353;50.906;7.248;2022-11-20T08:46:01;4.00;99.90
41664;DHT22;27353;50.906;7.248;2022-11-20T08:48:27;4.00;99.90
41664;DHT22;27353;50.906;7.248;2022-11-20T08:50:52;4.00;99.90
41664;DHT22;27353;50.906;7.248;2022-11-20T08:53:18;4.10;99.90
41664;DHT22;27353;50.906;7.248;2022-11-20T08:55:44;4.20;99.90
41664;DHT22;27353;50.906;7.248;2022-11-20T08:58:09;4.20;99.90
41664;DHT22;27353;50.906;7.248;2022-11-20T09:00:35;4.20;99.90
41664;DHT22;27353;50.906;7.248;2022-11-20T09:03:01;4.30;99.90
41664;DHT22;27353;50.906;7.248;2022-11-20T09:05:27;4.30;99.90
41664;DHT22;27353;50.906;7.248;2022-11-20T09:07:59;4.50;99.90
41664;DHT22;27353;50.906;7.248;2022-11-20T09:10:25;4.50;99.90
41664;DHT22;27353;50.906;7.248;2022-11-20T09:12:52;4.60;99.90
41664;DHT22;27353;50.906;7.248;2022-11-20T09:15:18;4.70;99.90
41664;DHT22;27353;50.906;7.248;2022-11-20T09:17:57;4.90;99.90
41664;DHT22;27353;50.906;7.248;2022-11-20T09:20:24;4.90;99.90
41664;DHT22;27353;50.906;7.248;2022-11-20T09:22:49;4.90;99.90
41664;DHT22;27353;50.906;7.248;2022-11-20T09:25:16;4.80;99.90
41664;DHT22;27353;50.906;7.248;2022-11-20T09:27:41;4.80;99.90
41664;DHT22;27353;50.906;7.248;2022-11-20T09:30:09;4.80;99.90
41664;DHT22;27353;50.906;7.248;2022-11-20T09:32:35;5.00;99.90
41664;DHT22;27353;50.906;7.248;2022-11-20T09:35:01;4.90;99.90
41664;DHT22;27353;50.906;7.248;2022-11-20T09:37:27;4.90;99.90
41664;DHT22;27353;50.906;7.248;2022-11-20T09:39:53;4.90;99.90
41664;DHT22;27353;50.906;7.248;2022-11-20T09:55:30;5.30;99.90
41664;DHT22;27353;50.906;7.248;2022-11-20T09:57:56;5.90;99.90
41664;DHT22;27353;50.906;7.248;2022-11-20T10:00:22;6.30;99.90
41664;DHT22;27353;50.906;7.248;2022-11-20T10:03:18;6.50;99.90
41664;DHT22;27353;50.906;7.248;2022-11-20T10:05:50;6.40;99.90
41664;DHT22;27353;50.906;7.248;2022-11-20T10:08:24;6.30;99.90
41664;DHT22;27353;50.906;7.248;2022-11-20T10:14:15;6.30;99.90
41664;DHT22;27353;50.906;7.248;2022-11-20T10:16:52;6.30;99.90
41664;DHT22;27353;50.906;7.248;2022-11-20T10:20:02;6.20;99.90
41664;DHT22;27353;50.906;7.248;2022-11-20T10:23:11;5.80;99.90
41664;DHT22;27353;50.906;7.248;2022-11-20T10:26:04;5.60;99.90
41664;DHT22;27353;50.906;7.248;2022-11-20T10:33:57;5.40;99.90
41664;DHT22;27353;50.906;7.248;2022-11-20T10:36:30;5.40;99.90
41664;DHT22;27353;50.906;7.248;2022-11-20T10:39:03;5.40;99.90
41664;DHT22;27353;50.906;7.248;2022-11-20T10:41:34;5.40;99.90
41664;DHT22;27353;50.906;7.248;2022-11-20T10:46:44;5.10;99.90
41664;DHT22;27353;50.906;7.248;2022-11-20T10:49:15;5.10;99.90
41664;DHT22;27353;50.906;7.248;2022-11-20T10:51:56;5.10;99.90
41664;DHT22;27353;50.906;7.248;2022-11-20T11:00:05;5.40;99.90
41664;DHT22;27353;50.906;7.248;2022-11-20T11:02:53;5.70;99.90
41664;DHT22;27353;50.906;7.248;2022-11-20T11:08:07;6.10;99.90
41664;DHT22;27353;50.906;7.248;2022-11-20T11:10:58;6.10;99.90
41664;DHT22;27353;50.906;7.248;2022-11-20T11:13:29;5.90;99.90
41664;DHT22;27353;50.906;7.248;2022-11-20T11:15:56;6.00;99.90
41664;DHT22;27353;50.906;7.248;2022-11-20T11:20:53;5.50;99.90
41664;DHT22;27353;50.906;7.248;2022-11-20T11:25:58;5.50;99.90
41664;DHT22;27353;50.906;7.248;2022-11-20T11:28:25;5.40;99.90
41664;DHT22;27353;50.906;7.248;2022-11-20T11:30:53;5.50;99.90
41664;DHT22;27353;50.906;7.248;2022-11-20T11:35:59;5.30;99.90
41664;DHT22;27353;50.906;7.248;2022-11-20T11:38:42;5.20;99.90
41664;DHT22;27353;50.906;7.248;2022-11-20T11:41:21;5.10;99.90
41664;DHT22;27353;50.906;7.248;2022-11-20T11:44:00;5.10;99.90
41664;DHT22;27353;50.906;7.248;2022-11-20T11:46:53;5.20;99.90
41664;DHT22;27353;50.906;7.248;2022-11-20T11:49:19;5.30;99.90
41664;DHT22;27353;50.906;7.248;2022-11-20T11:52:13;5.40;99.90
41664;DHT22;27353;50.906;7.248;2022-11-20T11:54:52;5.00;99.90
41664;DHT22;27353;50.906;7.248;2022-11-20T12:05:15;5.10;99.90
41664;DHT22;27353;50.906;7.248;2022-11-20T12:07:45;5.20;99.90
41664;DHT22;27353;50.906;7.248;2022-11-20T12:10:22;5.20;99.90
41664;DHT22;27353;50.906;7.248;2022-11-20T12:12:52;5.20;99.90
41664;DHT22;27353;50.906;7.248;2022-11-20T12:15:31;5.20;99.90
41664;DHT22;27353;50.906;7.248;2022-11-20T12:17:57;5.20;99.90
41664;DHT22;27353;50.906;7.248;2022-11-20T12:20:32;5.30;99.90
41664;DHT22;27353;50.906;7.248;2022-11-20T12:25:35;5.50;99.90
41664;DHT22;27353;50.906;7.248;2022-11-20T12:28:12;5.50;99.90
41664;DHT22;27353;50.906;7.248;2022-11-20T12:34:02;5.30;99.90
41664;DHT22;27353;50.906;7.248;2022-11-20T12:36:39;5.40;99.90
41664;DHT22;27353;50.906;7.248;2022-11-20T12:39:34;5.50;99.90
41664;DHT22;27353;50.906;7.248;2022-11-20T13:01:44;5.70;99.90
41664;DHT22;27353;50.906;7.248;2022-11-20T13:06:59;5.90;99.90
41664;DHT22;27353;50.906;7.248;2022-11-20T13:09:26;5.80;99.90
41664;DHT22;27353;50.906;7.248;2022-11-20T13:12:10;5.80;99.90
41664;DHT22;27353;50.906;7.248;2022-11-20T13:17:43;5.60;99.90
41664;DHT22;27353;50.906;7.248;2022-11-20T13:20:17;5.60;99.90
41664;DHT22;27353;50.906;7.248;2022-11-20T13:22:48;5.70;99.90
41664;DHT22;27353;50.906;7.248;2022-11-20T13:25:26;5.70;99.90
41664;DHT22;27353;50.906;7.248;2022-11-20T13:27:53;5.70;99.90
41664;DHT22;27353;50.906;7.248;2022-11-20T13:30:27;5.80;99.90
41664;DHT22;27353;50.906;7.248;2022-11-20T13:33:00;5.80;99.90
41664;DHT22;27353;50.906;7.248;2022-11-20T13:35:36;5.90;99.90
41664;DHT22;27353;50.906;7.248;2022-11-20T13:38:10;6.00;99.90
41664;DHT22;27353;50.906;7.248;2022-11-20T13:40:59;5.90;99.90
41664;DHT22;27353;50.906;7.248;2022-11-20T13:43:42;5.90;99.90
41664;DHT22;27353;50.906;7.248;2022-11-20T13:46:09;6.10;99.90
41664;DHT22;27353;50.906;7.248;2022-11-20T13:59:43;6.00;99.90
41664;DHT22;27353;50.906;7.248;2022-11-20T14:02:14;6.10;99.90
41664;DHT22;27353;50.906;7.248;2022-11-20T14:04:49;6.10;99.90
41664;DHT22;27353;50.906;7.248;2022-11-20T14:07:17;6.10;99.90
41664;DHT22;27353;50.906;7.248;2022-11-20T14:09:55;6.00;99.90
41664;DHT22;27353;50.906;7.248;2022-11-20T14:12:30;6.10;99.90
41664;DHT22;27353;50.906;7.248;2022-11-20T14:14:56;6.00;99.90
41664;DHT22;27353;50.906;7.248;2022-11-20T14:19:55;6.10;99.90
41664;DHT22;27353;50.906;7.248;2022-11-20T14:22:26;6.20;99.90
41664;DHT22;27353;50.906;7.248;2022-11-20T14:25:20;6.10;99.90
41664;DHT22;27353;50.906;7.248;2022-11-20T14:28:00;6.00;99.90
41664;DHT22;27353;50.906;7.248;2022-11-20T14:30:44;6.00;99.90
41664;DHT22;27353;50.906;7.248;2022-11-20T14:33:11;5.90;99.90
41664;DHT22;27353;50.906;7.248;2022-11-20T14:35:47;5.90;99.90
41664;DHT22;27353;50.906;7.248;2022-11-20T14:38:16;5.80;99.90
41664;DHT22;27353;50.906;7.248;2022-11-20T14:40:43;5.80;99.90
41664;DHT22;27353;50.906;7.248;2022-11-20T14:43:22;5.90;99.90
41664;DHT22;27353;50.906;7.248;2022-11-20T14:46:08;5.80;99.90
41664;DHT22;27353;50.906;7.248;2022-11-20T14:48:47;5.80;99.90
41664;DHT22;27353;50.906;7.248;2022-11-20T14:54:16;5.80;99.90
41664;DHT22;27353;50.906;7.248;2022-11-20T14:56:54;5.70;99.90
41664;DHT22;27353;50.906;7.248;2022-11-20T14:59:28;5.80;99.90
41664;DHT22;27353;50.906;7.248;2022-11-20T15:04:22;5.70;99.90
41664;DHT22;27353;50.906;7.248;2022-11-20T15:06:57;5.70;99.90
41664;DHT22;27353;50.906;7.248;2022-11-20T15:09:23;5.80;99.90
41664;DHT22;27353;50.906;7.248;2022-11-20T15:11:58;5.70;99.90
41664;DHT22;27353;50.906;7.248;2022-11-20T15:14:27;5.80;99.90
41664;DHT22;27353;50.906;7.248;2022-11-20T15:16:53;5.80;99.90
41664;DHT22;27353;50.906;7.248;2022-11-20T15:19:24;5.80;99.90
41664;DHT22;27353;50.906;7.248;2022-11-20T15:21:51;5.80;99.90
41664;DHT22;27353;50.906;7.248;2022-11-20T15:24:17;5.70;99.90
41664;DHT22;27353;50.906;7.248;2022-11-20T15:26:43;5.70;99.90
41664;DHT22;27353;50.906;7.248;2022-11-20T15:29:11;5.70;99.90
41664;DHT22;27353;50.906;7.248;2022-11-20T15:31:38;5.70;99.90
41664;DHT22;27353;50.906;7.248;2022-11-20T15:34:11;5.70;99.90
41664;DHT22;27353;50.906;7.248;2022-11-20T15:36:41;5.70;99.90
41664;DHT22;27353;50.906;7.248;2022-11-20T15:39:07;5.70;99.90
41664;DHT22;27353;50.906;7.248;2022-11-20T15:41:34;5.80;99.90
41664;DHT22;27353;50.906;7.248;2022-11-20T15:44:00;5.80;99.90
41664;DHT22;27353;50.906;7.248;2022-11-20T15:46:29;5.80;99.90
41664;DHT22;27353;50.906;7.248;2022-11-20T15:48:56;5.80;99.90
41664;DHT22;27353;50.906;7.248;2022-11-20T15:53:55;5.80;99.90
41664;DHT22;27353;50.906;7.248;2022-11-20T15:56:21;5.80;99.90
41664;DHT22;27353;50.906;7.248;2022-11-20T15:58:47;5.80;99.90
41664;DHT22;27353;50.906;7.248;2022-11-20T16:01:14;5.80;99.90
41664;DHT22;27353;50.906;7.248;2022-11-20T16:03:42;5.80;99.90
41664;DHT22;27353;50.906;7.248;2022-11-20T16:06:08;5.80;99.90
41664;DHT22;27353;50.906;7.248;2022-11-20T16:08:34;5.80;99.90
41664;DHT22;27353;50.906;7.248;2022-11-20T16:11:00;5.80;99.90
41664;DHT22;27353;50.906;7.248;2022-11-20T16:13:25;5.80;99.90
41664;DHT22;27353;50.906;7.248;2022-11-20T16:16:22;5.80;99.90
41664;DHT22;27353;50.906;7.248;2022-11-20T16:18:49;5.80;99.90
41664;DHT22;27353;50.906;7.248;2022-11-20T16:21:16;5.80;99.90
41664;DHT22;27353;50.906;7.248;2022-11-20T16:23:45;5.80;99.90
41664;DHT22;27353;50.906;7.248;2022-11-20T16:26:16;5.80;99.90
41664;DHT22;27353;50.906;7.248;2022-11-20T16:28:45;5.80;99.90
41664;DHT22;27353;50.906;7.248;2022-11-20T16:31:16;5.80;99.90
41664;DHT22;27353;50.906;7.248;2022-11-20T16:33:42;5.80;99.90
41664;DHT22;27353;50.906;7.248;2022-11-20T16:36:12;5.80;99.90
41664;DHT22;27353;50.906;7.248;2022-11-20T16:38:38;5.80;99.90
41664;DHT22;27353;50.906;7.248;2022-11-20T16:41:04;5.80;99.90
41664;DHT22;27353;50.906;7.248;2022-11-20T16:43:30;5.80;99.90
41664;DHT22;27353;50.906;7.248;2022-11-20T16:45:56;5.90;99.90
41664;DHT22;27353;50.906;7.248;2022-11-20T16:48:22;5.80;99.90
41664;DHT22;27353;50.906;7.248;2022-11-20T16:50:52;5.80;99.90
41664;DHT22;27353;50.906;7.248;2022-11-20T16:53:19;5.90;99.90
41664;DHT22;27353;50.906;7.248;2022-11-20T16:55:48;5.90;99.90
41664;DHT22;27353;50.906;7.248;2022-11-20T16:58:17;5.90;99.90
41664;DHT22;27353;50.906;7.248;2022-11-20T17:00:42;5.90;99.90
41664;DHT22;27353;50.906;7.248;2022-11-20T17:03:08;5.90;99.90
41664;DHT22;27353;50.906;7.248;2022-11-20T17:05:34;5.90;99.90
41664;DHT22;27353;50.906;7.248;2022-11-20T17:08:00;5.90;99.90
41664;DHT22;27353;50.906;7.248;2022-11-20T17:10:26;5.90;99.90
41664;DHT22;27353;50.906;7.248;2022-11-20T17:12:52;5.90;99.90
41664;DHT22;27353;50.906;7.248;2022-11-20T17:15:18;5.90;99.90
41664;DHT22;27353;50.906;7.248;2022-11-20T17:17:44;5.90;99.90
41664;DHT22;27353;50.906;7.248;2022-11-20T17:20:10;5.90;99.90
41664;DHT22;27353;50.906;7.248;2022-11-20T17:22:37;5.80;99.90
41664;DHT22;27353;50.906;7.248;2022-11-20T17:25:08;5.90;99.90
41664;DHT22;27353;50.906;7.248;2022-11-20T17:27:33;5.90;99.90
41664;DHT22;27353;50.906;7.248;2022-11-20T17:29:59;5.90;99.90
41664;DHT22;27353;50.906;7.248;2022-11-20T17:32:28;5.90;99.90
41664;DHT22;27353;50.906;7.248;2022-11-20T17:34:53;5.90;99.90
41664;DHT22;27353;50.906;7.248;2022-11-20T17:37:19;5.90;99.90
41664;DHT22;27353;50.906;7.248;2022-11-20T17:39:45;5.90;99.90
41664;DHT22;27353;50.906;7.248;2022-11-20T17:42:11;5.90;99.90
41664;DHT22;27353;50.906;7.248;2022-11-20T17:44:51;5.90;99.90